createdAt,value
2022-10-17T00:10:29.977Z,102168.75
2022-10-17T00:18:16.794Z,102171.72
2022-10-17T00:22:02.484Z,102175.31
2022-10-17T00:36:11.243Z,102190.44
2022-10-17T00:49:31.927Z,102190.63
2022-10-17T01:07:19.086Z,102194.16
2022-10-17T01:19:30.694Z,102187.28
2022-10-17T01:53:56.936Z,102193.66
2022-10-17T02:11:51.024Z,102196.22
2022-10-17T02:39:30.773Z,102208.84
2022-10-17T03:03:03.824Z,102209.81
2022-10-17T03:06:04.835Z,102210.03
2022-10-17T03:08:45.283Z,102213.81
2022-10-17T03:11:31.831Z,102211.94
2022-10-17T03:14:14.342Z,102214.28
2022-10-17T03:16:41.638Z,102215.47
2022-10-17T03:19:28.896Z,102212.28
2022-10-17T03:22:09.358Z,102212.78
2022-10-17T03:24:36.993Z,102214.16
2022-10-17T03:27:03.905Z,102215.94
2022-10-17T03:29:31.033Z,102217.19
2022-10-17T03:31:58.233Z,102230.47
2022-10-17T03:34:25.367Z,102233.31
2022-10-17T03:36:52.420Z,102234.97
2022-10-17T03:39:19.383Z,102239.19
2022-10-17T03:41:46.852Z,102242.81
2022-10-17T03:44:14.854Z,102253.47
2022-10-17T03:46:42.029Z,102250.25
2022-10-17T03:49:28.841Z,102251.22
2022-10-17T03:52:17.236Z,102248.72
2022-10-17T03:54:45.304Z,102247.97
2022-10-17T03:57:14.004Z,102253.34
2022-10-17T03:59:40.978Z,102255.22
2022-10-17T04:02:33.842Z,102261.31
2022-10-17T04:05:36.900Z,102265.13
2022-10-17T04:08:37.888Z,102269.03
2022-10-17T04:11:42.888Z,102275.63
2022-10-17T04:14:43.871Z,102287.19
2022-10-17T04:17:11.925Z,102286.00
2022-10-17T04:19:58.862Z,102292.16
2022-10-17T04:22:39.576Z,102297.34
2022-10-17T04:25:06.592Z,102289.50
2022-10-17T04:27:36.030Z,102291.06
2022-10-17T04:30:03.149Z,102292.00
2022-10-17T04:32:33.313Z,102299.75
2022-10-17T04:35:09.020Z,102303.28
2022-10-17T04:37:36.711Z,102308.81
2022-10-17T04:40:16.904Z,102311.53
2022-10-17T04:42:53.240Z,102308.91
2022-10-17T04:45:24.332Z,102317.31
2022-10-17T04:47:57.604Z,102313.97
2022-10-17T04:50:25.178Z,102313.44
2022-10-17T04:53:11.986Z,102312.53
2022-10-17T04:55:39.612Z,102314.09
2022-10-17T04:58:06.660Z,102324.34
2022-10-17T05:00:33.865Z,102317.28
2022-10-17T05:03:25.935Z,102326.66
2022-10-17T05:06:07.385Z,102318.09
2022-10-17T05:08:34.972Z,102323.06
2022-10-17T05:11:32.932Z,102321.66
2022-10-17T05:14:33.872Z,102327.03
2022-10-17T05:17:14.325Z,102323.94
2022-10-17T05:20:00.897Z,102327.53
2022-10-17T05:22:42.526Z,102333.22
2022-10-17T05:25:11.401Z,102330.34
2022-10-17T05:27:58.920Z,102329.47
2022-10-17T05:30:39.462Z,102325.63
2022-10-17T05:33:08.412Z,102330.59
2022-10-17T05:35:36.068Z,102329.84
2022-10-17T05:38:03.194Z,102331.13
2022-10-17T05:40:32.506Z,102335.31
2022-10-17T05:42:59.469Z,102337.44
2022-10-17T05:45:26.519Z,102333.38
2022-10-17T05:48:13.929Z,102330.69
2022-10-17T05:50:58.832Z,102336.78
2022-10-17T05:53:25.871Z,102335.00
2022-10-17T05:56:00.201Z,102336.34
2022-10-17T06:01:26.464Z,102339.41
2022-10-17T06:04:13.930Z,102342.22
2022-10-17T06:07:14.988Z,102361.28
2022-10-17T06:09:55.364Z,102360.56
2022-10-17T06:12:41.916Z,102364.50
2022-10-17T06:15:42.937Z,102364.25
2022-10-17T06:18:43.948Z,102376.28
2022-10-17T06:21:45.965Z,102380.84
2022-10-17T06:24:29.481Z,102379.03
2022-10-17T06:26:57.803Z,102385.81
2022-10-17T06:29:24.668Z,102386.91
2022-10-17T06:31:52.271Z,102381.91
2022-10-17T06:34:20.092Z,102379.38
2022-10-17T06:36:47.693Z,102386.06
2022-10-17T06:39:15.167Z,102381.28
2022-10-17T06:41:53.844Z,102388.25
2022-10-17T06:44:22.400Z,102396.91
2022-10-17T06:46:56.558Z,102394.03
2022-10-17T06:49:23.489Z,102403.97
2022-10-17T06:52:10.580Z,102407.00
2022-10-17T06:54:46.329Z,102408.75
2022-10-17T06:57:39.476Z,102409.50
2022-10-17T07:00:35.774Z,102408.44
2022-10-17T07:03:23.001Z,102406.09
2022-10-17T07:06:25.043Z,102410.03
2022-10-17T07:09:10.576Z,102410.31
2022-10-17T07:11:37.520Z,102413.38
2022-10-17T07:14:04.333Z,102430.09
2022-10-17T07:16:31.266Z,102423.25
2022-10-17T07:19:28.006Z,102429.34
2022-10-17T07:22:28.958Z,102435.13
2022-10-17T07:25:09.916Z,102430.25
2022-10-17T07:27:43.735Z,102437.63
2022-10-17T07:30:11.371Z,102441.31
2022-10-17T07:32:40.540Z,102440.59
2022-10-17T07:35:09.381Z,102454.47
2022-10-17T07:37:36.406Z,102451.03
2022-10-17T07:40:04.177Z,102453.22
2022-10-17T07:42:31.168Z,102444.72
2022-10-17T07:44:58.612Z,102444.38
2022-10-17T07:47:47.993Z,102450.78
2022-10-17T07:50:49.000Z,102448.00
2022-10-17T07:53:29.626Z,102452.09
2022-10-17T07:56:30.998Z,102460.59
2022-10-17T07:59:09.551Z,102458.88
2022-10-17T08:01:57.023Z,102462.81
2022-10-17T08:04:58.036Z,102455.31
2022-10-17T08:07:59.030Z,102454.00
2022-10-17T08:10:39.582Z,102467.19
2022-10-17T08:13:06.459Z,102459.47
2022-10-17T08:15:33.377Z,102460.50
2022-10-17T08:18:20.113Z,102458.56
2022-10-17T08:21:01.290Z,102459.19
2022-10-17T08:23:28.610Z,102461.19
2022-10-17T08:25:58.614Z,102471.78
2022-10-17T08:28:25.528Z,102466.00
2022-10-17T08:30:52.286Z,102467.28
2022-10-17T08:33:28.958Z,102465.38
2022-10-17T08:35:55.766Z,102467.31
2022-10-17T08:38:44.033Z,102470.13
2022-10-17T08:42:02.036Z,102474.22
2022-10-17T08:45:21.075Z,102469.53
2022-10-17T08:48:02.948Z,102474.47
2022-10-17T08:50:30.003Z,102470.69
2022-10-17T08:53:21.060Z,102477.44
2022-10-17T08:56:07.198Z,102470.50
2022-10-17T08:58:36.991Z,102469.78
2022-10-17T09:01:03.863Z,102481.78
2022-10-17T09:03:51.055Z,102473.16
2022-10-17T09:06:37.405Z,102472.69
2022-10-17T09:09:20.442Z,102474.59
2022-10-17T09:11:50.402Z,102473.75
2022-10-17T09:14:22.159Z,102475.94
2022-10-17T09:16:58.216Z,102477.31
2022-10-17T09:19:50.090Z,102485.66
2022-10-17T09:22:34.865Z,102479.66
2022-10-17T09:25:24.063Z,102480.56
2022-10-17T09:28:10.925Z,102477.47
2022-10-17T09:30:45.551Z,102468.19
2022-10-17T09:33:49.799Z,102467.53
2022-10-17T09:36:42.007Z,102471.22
2022-10-17T09:39:17.867Z,102465.75
2022-10-17T09:41:48.329Z,102464.19
2022-10-17T09:44:34.957Z,102469.97
2022-10-17T09:47:25.874Z,102467.63
2022-10-17T09:50:35.127Z,102467.50
2022-10-17T09:53:18.722Z,102468.16
2022-10-17T09:55:50.513Z,102473.47
2022-10-17T09:58:17.351Z,102472.34
2022-10-17T10:00:45.436Z,102473.47
2022-10-17T10:03:39.163Z,102471.31
2022-10-17T10:06:40.099Z,102472.88
2022-10-17T10:09:42.149Z,102474.06
2022-10-17T10:12:24.198Z,102471.31
2022-10-17T10:14:54.680Z,102472.97
2022-10-17T10:17:34.784Z,102465.47
2022-10-17T10:20:40.089Z,102471.34
2022-10-17T10:23:41.178Z,102472.06
2022-10-17T10:26:23.400Z,102464.16
2022-10-17T10:28:53.445Z,102471.78
2022-10-17T10:31:26.388Z,102469.81
2022-10-17T10:33:56.785Z,102470.59
2022-10-17T10:36:24.436Z,102466.84
2022-10-17T10:38:57.692Z,102466.81
2022-10-17T10:41:27.826Z,102472.44
2022-10-17T10:44:15.101Z,102460.94
2022-10-17T10:47:14.444Z,102466.44
2022-10-17T10:49:41.733Z,102463.63
2022-10-17T10:52:15.013Z,102465.53
2022-10-17T10:55:12.151Z,102460.16
2022-10-17T10:58:16.196Z,102461.31
2022-10-17T11:00:57.884Z,102465.44
2022-10-17T11:03:49.142Z,102462.84
2022-10-17T11:06:53.104Z,102459.13
2022-10-17T11:10:03.127Z,102466.69
2022-10-17T11:13:17.134Z,102453.81
2022-10-17T11:16:00.511Z,102445.78
2022-10-17T11:18:49.108Z,102439.44
2022-10-17T11:21:55.681Z,102433.56
2022-10-17T11:24:28.618Z,102438.06
2022-10-17T11:27:00.410Z,102440.03
2022-10-17T11:29:36.906Z,102438.16
2022-10-17T11:32:13.597Z,102438.94
2022-10-17T11:35:03.156Z,102434.00
2022-10-17T11:37:49.031Z,102429.06
2022-10-17T11:40:24.484Z,102421.22
2022-10-17T11:43:26.212Z,102433.19
2022-10-17T11:46:27.247Z,102423.38
2022-10-17T11:49:32.969Z,102419.00
2022-10-17T11:52:56.146Z,102427.78
2022-10-17T11:55:25.579Z,102427.69
2022-10-17T11:58:09.166Z,102418.22
2022-10-17T12:01:28.168Z,102417.25
2022-10-17T12:04:43.747Z,102416.75
2022-10-17T12:08:01.396Z,102405.13
2022-10-17T12:10:34.072Z,102416.25
2022-10-17T12:13:39.179Z,102407.34
2022-10-17T12:16:21.959Z,102395.91
2022-10-17T12:19:01.098Z,102395.97
2022-10-17T12:21:31.368Z,102395.97
2022-10-17T12:24:19.195Z,102402.03
2022-10-17T12:27:19.506Z,102395.59
2022-10-17T12:30:12.358Z,102390.94
2022-10-17T12:33:07.119Z,102388.31
2022-10-17T12:35:55.230Z,102387.75
2022-10-17T12:38:35.669Z,102385.13
2022-10-17T12:41:23.261Z,102387.97
2022-10-17T12:44:29.404Z,102375.59
2022-10-17T12:48:03.216Z,102376.25
2022-10-17T12:51:35.267Z,102376.75
2022-10-17T12:54:16.419Z,102371.63
2022-10-17T12:56:47.869Z,102368.81
2022-10-17T12:59:21.722Z,102365.75
2022-10-17T13:02:12.214Z,102370.50
2022-10-17T13:05:19.219Z,102361.66
2022-10-17T13:08:22.398Z,102355.44
2022-10-17T13:10:55.132Z,102351.28
2022-10-17T13:13:48.954Z,102346.94
2022-10-17T13:16:28.221Z,102345.28
2022-10-17T13:18:55.300Z,102345.63
2022-10-17T13:21:22.369Z,102347.28
2022-10-17T13:23:51.247Z,102339.53
2022-10-17T13:26:22.015Z,102341.31
2022-10-17T13:29:05.554Z,102333.16
2022-10-17T13:31:34.878Z,102330.63
2022-10-17T13:34:32.213Z,102330.81
2022-10-17T13:37:14.289Z,102333.63
2022-10-17T13:40:24.830Z,102331.00
2022-10-17T13:43:40.252Z,102331.88
2022-10-17T13:46:43.214Z,102329.81
2022-10-17T13:49:50.497Z,102325.28
2022-10-17T13:52:53.227Z,102326.03
2022-10-17T13:55:33.846Z,102320.78
2022-10-17T13:58:14.912Z,102318.13
2022-10-17T14:00:42.242Z,102322.91
2022-10-17T14:03:47.062Z,102322.91
2022-10-17T14:06:54.244Z,102314.75
2022-10-17T14:09:55.316Z,102320.88
2022-10-17T14:12:35.755Z,102315.34
2022-10-17T14:15:11.231Z,102313.06
2022-10-17T14:17:39.611Z,102315.59
2022-10-17T14:20:40.801Z,102307.38
2022-10-17T14:23:20.871Z,102304.09
2022-10-17T14:25:42.324Z,102305.09
2022-10-17T14:28:11.158Z,102303.19
2022-10-17T14:30:57.131Z,102303.78
2022-10-17T14:33:49.682Z,102309.06
2022-10-17T14:36:55.315Z,102303.78
2022-10-17T14:39:56.359Z,102292.44
2022-10-17T14:42:57.310Z,102305.75
2022-10-17T14:45:59.289Z,102311.88
2022-10-17T14:49:05.305Z,102314.59
2022-10-17T14:52:17.975Z,102308.41
2022-10-17T14:55:05.292Z,102303.81
2022-10-17T14:57:46.273Z,102296.56
2022-10-17T15:00:33.386Z,102294.88
2022-10-17T15:03:34.375Z,102293.06
2022-10-17T15:06:37.310Z,102301.13
2022-10-17T15:09:17.743Z,102293.97
2022-10-17T15:12:04.311Z,102289.47
2022-10-17T15:14:45.231Z,102296.53
2022-10-17T15:20:43.276Z,102291.69
2022-10-17T15:23:23.870Z,102291.63
2022-10-17T15:25:50.807Z,102290.63
2022-10-17T15:28:17.661Z,102291.53
2022-10-17T15:30:44.402Z,102291.50
2022-10-17T15:33:31.282Z,102289.72
2022-10-17T15:36:22.983Z,102285.13
2022-10-17T15:38:50.638Z,102287.75
2022-10-17T15:41:17.507Z,102297.34
2022-10-17T15:44:04.346Z,102295.44
2022-10-17T15:46:44.930Z,102293.41
2022-10-17T15:49:13.466Z,102298.63
2022-10-17T15:51:40.783Z,102300.47
2022-10-17T15:54:28.340Z,102296.06
2022-10-17T15:57:32.589Z,102296.66
2022-10-17T16:00:23.862Z,102295.47
2022-10-17T16:02:50.759Z,102298.78
2022-10-17T16:05:29.343Z,102298.63
2022-10-17T16:07:57.502Z,102300.97
2022-10-17T16:10:44.363Z,102301.63
2022-10-17T16:13:38.499Z,102303.09
2022-10-17T16:16:19.308Z,102298.41
2022-10-17T16:18:46.341Z,102312.31
2022-10-17T16:21:14.994Z,102308.66
2022-10-17T16:23:42.284Z,102320.19
2022-10-17T16:26:09.699Z,102311.88
2022-10-17T16:28:36.686Z,102315.97
2022-10-17T16:31:36.357Z,102313.94
2022-10-17T16:34:38.351Z,102315.34
2022-10-17T16:37:39.331Z,102319.41
2022-10-17T16:40:40.360Z,102319.88
2022-10-17T16:43:43.316Z,102322.16
2022-10-17T16:46:24.449Z,102328.94
2022-10-17T16:48:51.332Z,102321.66
2022-10-17T16:51:19.150Z,102328.63
2022-10-17T16:54:06.419Z,102323.25
2022-10-17T16:57:07.331Z,102326.69
2022-10-17T16:59:47.806Z,102339.00
2022-10-17T17:02:17.577Z,102329.28
2022-10-17T17:04:47.348Z,102334.66
2022-10-17T17:07:14.380Z,102339.28
2022-10-17T17:09:41.424Z,102335.91
2022-10-17T17:12:08.296Z,102337.53
2022-10-17T17:14:35.290Z,102336.13
2022-10-17T17:17:36.944Z,102344.50
2022-10-17T17:20:38.541Z,102343.66
2022-10-17T17:23:18.886Z,102352.03
2022-10-17T17:25:46.134Z,102345.50
2022-10-17T17:28:33.452Z,102344.81
2022-10-17T17:31:35.393Z,102351.28
2022-10-17T17:34:24.742Z,102346.47
2022-10-17T17:36:51.644Z,102348.78
2022-10-17T17:39:38.412Z,102344.91
2022-10-17T17:42:39.375Z,102350.81
2022-10-17T17:45:19.994Z,102357.84
2022-10-17T17:47:46.743Z,102348.34
2022-10-17T17:50:13.651Z,102353.75
2022-10-17T17:52:42.193Z,102359.13
2022-10-17T17:55:29.390Z,102366.78
2022-10-17T17:58:09.922Z,102359.56
2022-10-17T18:00:36.964Z,102357.72
2022-10-17T18:03:04.007Z,102369.91
2022-10-17T18:05:31.370Z,102373.28
2022-10-17T18:07:58.679Z,102375.72
2022-10-17T18:10:46.593Z,102372.88
2022-10-17T18:13:26.964Z,102373.84
2022-10-17T18:16:23.426Z,102370.63
2022-10-17T18:19:06.889Z,102367.00
2022-10-17T18:21:35.015Z,102368.59
2022-10-17T18:24:02.469Z,102383.56
2022-10-17T18:26:29.406Z,102381.38
2022-10-17T18:29:18.478Z,102375.59
2022-10-17T18:32:19.650Z,102379.19
2022-10-17T18:34:59.838Z,102386.91
2022-10-17T18:37:26.703Z,102393.88
2022-10-17T18:40:13.480Z,102396.41
2022-10-17T18:43:14.619Z,102395.03
2022-10-17T18:48:44.427Z,102390.03
2022-10-17T18:51:12.179Z,102393.88
2022-10-17T18:54:00.472Z,102386.41
2022-10-17T18:56:50.751Z,102388.16
2022-10-17T18:59:18.584Z,102389.16
2022-10-17T19:02:05.601Z,102388.63
2022-10-17T19:05:06.558Z,102389.50
2022-10-17T19:07:53.487Z,102390.31
2022-10-17T19:10:34.259Z,102384.81
2022-10-17T19:13:01.506Z,102395.56
2022-10-17T19:15:48.480Z,102392.16
2022-10-17T19:18:49.484Z,102397.31
2022-10-17T19:21:29.950Z,102398.88
2022-10-17T19:24:01.700Z,102394.59
2022-10-17T19:26:29.786Z,102392.28
2022-10-17T19:29:16.459Z,102391.56
2022-10-17T19:32:20.612Z,102394.44
2022-10-17T19:35:06.156Z,102394.13
2022-10-17T19:37:43.250Z,102394.88
2022-10-17T19:40:25.266Z,102399.56
2022-10-17T19:43:12.988Z,102386.09
2022-10-17T19:46:01.088Z,102384.34
2022-10-17T19:48:51.761Z,102379.84
2022-10-17T19:51:35.591Z,102378.66
2022-10-17T19:57:29.469Z,102374.22
2022-10-17T20:00:02.273Z,102376.13
2022-10-17T20:02:38.703Z,102384.16
2022-10-17T20:05:18.449Z,102124.06
2022-10-17T20:07:50.712Z,102381.41
2022-10-17T20:10:20.154Z,102384.88
2022-10-17T20:12:50.699Z,102380.97
2022-10-17T20:15:30.712Z,102381.56
2022-10-17T20:18:33.708Z,102379.19
2022-10-17T20:21:15.987Z,102381.81
2022-10-17T20:23:43.854Z,102383.69
2022-10-17T20:26:38.177Z,102386.41
2022-10-17T20:29:31.214Z,102375.91
2022-10-17T20:32:12.887Z,102384.03
2022-10-17T20:35:01.541Z,102391.47
2022-10-17T20:38:06.977Z,102391.97
2022-10-17T20:40:47.999Z,102390.75
2022-10-17T20:43:18.075Z,102395.25
2022-10-17T20:45:51.220Z,102396.66
2022-10-17T20:48:18.713Z,102395.91
2022-10-17T20:50:49.008Z,102398.81
2022-10-17T20:53:36.030Z,102400.75
2022-10-17T20:56:37.487Z,102405.94
2022-10-17T20:59:20.566Z,102409.72
2022-10-17T21:02:10.864Z,102407.13
2022-10-17T21:04:58.173Z,102408.03
2022-10-17T21:07:28.081Z,102412.94
2022-10-17T21:09:56.172Z,102398.53
2022-10-17T21:12:31.330Z,102401.75
2022-10-17T21:15:30.582Z,102401.91
2022-10-17T21:18:11.189Z,102411.16
2022-10-17T21:20:38.238Z,102402.22
2022-10-17T21:23:05.851Z,102410.03
2022-10-17T21:25:53.524Z,102402.72
2022-10-17T21:28:55.642Z,102404.78
2022-10-17T21:31:37.743Z,102406.16
2022-10-17T21:34:19.560Z,102406.75
2022-10-17T21:37:13.906Z,102397.41
2022-10-17T21:39:57.334Z,102410.72
2022-10-17T21:42:26.285Z,102404.63
2022-10-17T21:44:53.217Z,102414.81
2022-10-17T21:48:11.145Z,102405.72
2022-10-17T21:50:47.041Z,102405.22
2022-10-17T21:53:14.093Z,102403.31
2022-10-17T21:56:01.541Z,102397.97
2022-10-17T21:58:43.505Z,102407.31
2022-10-17T22:01:15.297Z,102401.78
2022-10-17T22:03:45.882Z,102410.41
2022-10-17T22:09:02.268Z,102405.16
2022-10-17T22:11:30.901Z,102403.09
2022-10-17T22:14:20.570Z,102410.63
2022-10-17T22:17:01.753Z,102399.59
2022-10-17T22:19:28.635Z,102414.09
2022-10-17T22:22:17.705Z,102406.41
2022-10-17T22:25:18.576Z,102399.00
2022-10-17T22:28:12.741Z,102403.53
2022-10-17T22:31:08.041Z,102407.31
2022-10-17T22:33:36.127Z,102404.22
2022-10-17T22:36:12.583Z,102408.53
2022-10-17T22:38:42.325Z,102404.63
2022-10-17T22:41:09.620Z,102404.72
2022-10-17T22:43:36.915Z,102399.19
2022-10-17T22:46:05.154Z,102401.66
2022-10-17T22:48:32.512Z,102390.66
2022-10-17T22:51:08.318Z,102392.88
2022-10-17T22:53:43.752Z,102392.88
2022-10-17T22:56:46.938Z,102384.91
2022-10-17T22:59:47.666Z,102384.66
2022-10-17T23:02:47.670Z,102384.50
2022-10-17T23:05:31.291Z,102390.16
2022-10-17T23:07:59.802Z,102386.88
2022-10-17T23:10:27.228Z,102386.47
2022-10-17T23:12:54.564Z,102383.88
2022-10-17T23:15:22.991Z,102385.66
2022-10-17T23:17:50.645Z,102382.28
2022-10-17T23:20:30.023Z,102386.25
2022-10-17T23:23:01.183Z,102385.97
2022-10-17T23:25:48.701Z,102385.91
2022-10-17T23:28:50.965Z,102381.06
2022-10-17T23:31:31.879Z,102380.50
2022-10-17T23:34:19.826Z,102385.41
2022-10-17T23:37:00.691Z,102380.72
2022-10-17T23:39:47.778Z,102392.09
2022-10-17T23:42:32.152Z,102394.75
2022-10-17T23:45:00.267Z,102393.94
2022-10-17T23:47:28.232Z,102398.50
2022-10-17T23:49:58.913Z,102394.88
2022-10-17T23:52:30.174Z,102391.81
2022-10-17T23:55:21.821Z,102394.84
2022-10-17T23:58:06.022Z,102385.09
